Time;durP1;ratioP1;P1;durP2;ratioP2;P2;SDS_P1;SDS_P2;PMS_P1;PMS_P2;Temp;Humidity;BMP_temperature;BMP_pressure;BME280_temperature;BME280_humidity;BME280_pressure;Samples;Min_cycle;Max_cycle;Signal;HPM_P1;HPM_P2
2022/01/12 00:01:38;;;;;;;14.48;9.07;;;;;;;;;;10361309;28;20017;-51
2022/01/12 00:06:38;;;;;;;15.98;9.57;;;;;;;;;;10365718;28;20030;-49
2022/01/12 00:11:39;;;;;;;18.67;9.73;;;;;;;;;;10368021;28;20026;-51
2022/01/12 00:16:40;;;;;;;16.20;9.60;;;;;;;;;;10366868;28;20042;-50
2022/01/12 00:21:41;;;;;;;19.98;9.90;;;;;;;;;;10374362;28;20030;-49
2022/01/12 00:33:07;;;;;;;19.40;10.13;;;;;;;;;;10374674;28;20034;-52
2022/01/12 00:37:20;;;;;;;17.38;9.40;;;;;;;;;;10374360;28;20196;-51
2022/01/12 00:42:23;;;;;;;18.20;10.43;;;;;;;;;;10373975;28;20223;-50
2022/01/12 00:47:24;;;;;;;13.82;9.70;;;;;;;;;;10374386;28;20463;-48
2022/01/12 00:52:24;;;;;;;15.77;9.90;;;;;;;;;;10374089;28;20022;-48
2022/01/12 00:57:24;;;;;;;16.10;9.57;;;;;;;;;;10373468;28;21034;-50
2022/01/12 01:02:25;;;;;;;17.10;9.85;;;;;;;;;;10369023;28;20462;-50
2022/01/12 01:07:25;;;;;;;19.48;10.85;;;;;;;;;;10371645;28;20021;-50
2022/01/12 01:12:26;;;;;;;15.00;9.63;;;;;;;;;;10372835;28;20029;-50
2022/01/12 01:28:05;;;;;;;16.30;10.00;;;;;;;;;;10368652;28;20042;-48
2022/01/12 01:33:08;;;;;;;13.98;9.80;;;;;;;;;;10371530;28;20033;-51
2022/01/12 01:38:08;;;;;;;14.32;9.52;;;;;;;;;;10371771;28;20025;-48
2022/01/12 01:43:19;;;;;;;17.27;9.83;;;;;;;;;;10372114;28;20080;-51
2022/01/12 01:53:39;;;;;;;15.40;9.60;;;;;;;;;;10371312;28;20125;-50
2022/01/12 01:58:40;;;;;;;13.65;8.95;;;;;;;;;;10371482;28;20030;-50
2022/01/12 02:03:41;;;;;;;15.32;9.55;;;;;;;;;;10367735;28;20044;-47
2022/01/12 02:08:42;;;;;;;15.18;9.40;;;;;;;;;;10369694;28;20037;-46
2022/01/12 02:13:42;;;;;;;15.93;8.38;;;;;;;;;;10369379;28;20038;-51
2022/01/12 02:19:08;;;;;;;12.20;8.73;;;;;;;;;;10370353;28;20132;-49
2022/01/12 02:40:10;;;;;;;16.08;8.40;;;;;;;;;;10369543;28;20320;-50
2022/01/12 02:55:38;;;;;;;12.75;8.40;;;;;;;;;;10369371;28;20026;-51
2022/01/12 03:01:06;;;;;;;16.70;8.93;;;;;;;;;;10368536;28;20022;-50
2022/01/12 03:06:08;;;;;;;12.10;8.48;;;;;;;;;;10368917;28;20535;-51
2022/01/12 03:11:11;;;;;;;12.82;8.43;;;;;;;;;;10365190;28;20033;-51
2022/01/12 03:16:17;;;;;;;12.13;8.27;;;;;;;;;;10364896;28;20041;-51
2022/01/12 03:21:20;;;;;;;17.67;8.43;;;;;;;;;;10368043;28;20022;-51
2022/01/12 03:26:21;;;;;;;13.85;8.70;;;;;;;;;;10367893;28;20042;-49
2022/01/12 03:31:25;;;;;;;11.02;8.00;;;;;;;;;;10367697;28;20485;-51
2022/01/12 03:41:29;;;;;;;13.55;8.77;;;;;;;;;;10368060;28;20021;-52
2022/01/12 03:46:45;;;;;;;14.32;8.50;;;;;;;;;;10367296;28;20482;-50
2022/01/12 03:51:46;;;;;;;13.07;8.43;;;;;;;;;;10367295;28;20030;-50
2022/01/12 03:56:46;;;;;;;14.48;8.75;;;;;;;;;;10375373;28;20076;-50
2022/01/12 04:01:47;;;;;;;13.27;8.33;;;;;;;;;;10375880;28;20026;-50
2022/01/12 04:12:20;;;;;;;11.15;8.27;;;;;;;;;;10373652;28;20546;-51
2022/01/12 04:17:20;;;;;;;13.48;8.30;;;;;;;;;;10371686;28;20148;-52
2022/01/12 04:27:40;;;;;;;11.80;8.50;;;;;;;;;;10374498;28;20942;-52
2022/01/12 04:32:42;;;;;;;13.35;8.38;;;;;;;;;;10374848;28;20034;-52
2022/01/12 04:37:43;;;;;;;10.75;8.05;;;;;;;;;;10374597;28;20030;-51
2022/01/12 04:42:43;;;;;;;14.80;7.88;;;;;;;;;;10373755;28;20050;-50
2022/01/12 04:52:56;;;;;;;14.45;8.90;;;;;;;;;;10374695;28;20948;-49
2022/01/12 04:57:57;;;;;;;12.25;8.40;;;;;;;;;;10373220;28;20022;-49
2022/01/12 05:13:19;;;;;;;13.85;8.77;;;;;;;;;;10372728;28;20042;-52
2022/01/12 05:18:20;;;;;;;12.13;8.20;;;;;;;;;;10373438;28;20025;-49
2022/01/12 05:23:21;;;;;;;13.85;8.10;;;;;;;;;;10369749;28;20974;-52
2022/01/12 05:28:22;;;;;;;11.13;7.95;;;;;;;;;;10369390;28;20044;-51
2022/01/12 05:33:24;;;;;;;11.88;7.90;;;;;;;;;;10372439;28;20029;-51
2022/01/12 05:38:26;;;;;;;13.88;8.15;;;;;;;;;;10372627;28;20022;-52
2022/01/12 05:43:29;;;;;;;12.27;8.52;;;;;;;;;;10372172;28;20085;-51
2022/01/12 05:53:48;;;;;;;13.05;8.23;;;;;;;;;;10371522;28;20037;-47
2022/01/12 05:58:50;;;;;;;13.57;7.13;;;;;;;;;;10371494;28;20022;-49
2022/01/12 06:03:50;;;;;;;12.25;8.00;;;;;;;;;;10371134;28;20446;-51
2022/01/12 06:08:50;;;;;;;11.90;8.18;;;;;;;;;;10371077;28;20059;-52
2022/01/12 06:13:52;;;;;;;11.93;8.05;;;;;;;;;;10370585;28;20061;-52
2022/01/12 06:18:53;;;;;;;15.05;8.13;;;;;;;;;;10369624;28;20037;-46
2022/01/12 06:23:53;;;;;;;10.93;7.80;;;;;;;;;;10367077;28;20045;-50
2022/01/12 06:34:10;;;;;;;12.00;6.65;;;;;;;;;;10369780;28;20026;-48
2022/01/12 06:39:12;;;;;;;7.95;6.15;;;;;;;;;;10369665;28;20037;-51
2022/01/12 06:44:15;;;;;;;11.63;6.90;;;;;;;;;;10369742;28;20026;-51
2022/01/12 06:49:16;;;;;;;9.73;6.72;;;;;;;;;;10369415;28;20037;-50
2022/01/12 06:54:17;;;;;;;10.32;7.20;;;;;;;;;;10369658;28;20038;-48
2022/01/12 06:59:17;;;;;;;9.73;6.43;;;;;;;;;;10370032;28;20416;-67
2022/01/12 07:04:18;;;;;;;8.00;5.90;;;;;;;;;;10368719;28;20370;-64
2022/01/12 07:09:18;;;;;;;10.68;6.68;;;;;;;;;;10369096;28;20491;-60
2022/01/12 07:14:18;;;;;;;10.77;6.97;;;;;;;;;;10368169;28;20041;-50
2022/01/12 07:19:19;;;;;;;11.20;6.78;;;;;;;;;;10368021;28;20514;-64
2022/01/12 07:24:19;;;;;;;12.65;6.85;;;;;;;;;;10369351;28;20045;-64
2022/01/12 07:29:20;;;;;;;10.48;5.90;;;;;;;;;;10364020;28;20486;-51
2022/01/12 07:34:20;;;;;;;10.80;6.40;;;;;;;;;;10363303;28;20161;-57
2022/01/12 07:39:21;;;;;;;10.70;6.43;;;;;;;;;;10368013;28;20595;-64
2022/01/12 07:44:21;;;;;;;14.75;6.53;;;;;;;;;;10367657;28;20505;-48
2022/01/12 07:49:21;;;;;;;10.10;6.10;;;;;;;;;;10367309;28;20033;-47
2022/01/12 07:54:22;;;;;;;10.37;6.13;;;;;;;;;;10367614;28;20110;-49
2022/01/12 07:59:22;;;;;;;15.83;6.53;;;;;;;;;;10367199;28;20458;-63
2022/01/12 08:04:23;;;;;;;9.60;6.27;;;;;;;;;;10367644;28;20497;-49
2022/01/12 08:09:23;;;;;;;12.38;5.97;;;;;;;;;;10367411;28;20791;-64
2022/01/12 08:14:23;;;;;;;8.95;5.93;;;;;;;;;;10366685;28;20084;-53
2022/01/12 08:19:25;;;;;;;14.93;6.83;;;;;;;;;;10367426;28;20033;-56
2022/01/12 08:24:25;;;;;;;12.95;7.57;;;;;;;;;;10366576;28;20515;-51
2022/01/12 08:29:28;;;;;;;21.47;7.97;;;;;;;;;;10366897;28;20058;-63
2022/01/12 08:34:29;;;;;;;14.60;7.72;;;;;;;;;;10363444;28;20463;-52
2022/01/12 08:39:29;;;;;;;14.63;8.23;;;;;;;;;;10366307;28;20057;-58
2022/01/12 08:44:30;;;;;;;14.02;7.50;;;;;;;;;;10374581;28;20026;-53
2022/01/12 08:49:30;;;;;;;10.05;6.22;;;;;;;;;;10374679;28;20188;-55
2022/01/12 08:54:30;;;;;;;14.83;6.40;;;;;;;;;;10372248;28;20032;-47
2022/01/12 08:59:32;;;;;;;14.32;6.70;;;;;;;;;;10366138;28;20443;-48
2022/01/12 09:04:33;;;;;;;8.95;6.43;;;;;;;;;;10369482;28;20030;-46
2022/01/12 09:09:35;;;;;;;15.55;6.13;;;;;;;;;;10371393;28;20489;-49
2022/01/12 09:14:35;;;;;;;7.40;5.68;;;;;;;;;;10371418;28;20076;-51
2022/01/12 09:19:36;;;;;;;8.48;6.65;;;;;;;;;;10372186;28;20022;-52
2022/01/12 09:24:36;;;;;;;9.97;6.83;;;;;;;;;;10371635;28;20548;-55
2022/01/12 09:29:37;;;;;;;9.45;6.18;;;;;;;;;;10372282;28;20475;-51
2022/01/12 09:34:38;;;;;;;10.52;6.03;;;;;;;;;;10371868;28;20081;-49
2022/01/12 09:39:38;;;;;;;10.02;5.93;;;;;;;;;;10371846;28;20454;-51
2022/01/12 09:44:44;;;;;;;18.48;6.35;;;;;;;;;;10370207;28;20096;-51
2022/01/12 09:49:46;;;;;;;13.15;5.75;;;;;;;;;;10371658;28;20038;-51
2022/01/12 09:54:46;;;;;;;10.90;6.18;;;;;;;;;;10370904;28;20091;-64
2022/01/12 09:59:46;;;;;;;10.53;6.33;;;;;;;;;;10368045;28;20117;-52
2022/01/12 10:04:47;;;;;;;10.83;5.83;;;;;;;;;;10370459;28;20040;-48
2022/01/12 10:09:49;;;;;;;12.90;5.88;;;;;;;;;;10367481;28;20456;-49
2022/01/12 10:14:55;;;;;;;8.15;6.07;;;;;;;;;;10369767;28;20176;-46
2022/01/12 10:20:13;;;;;;;7.80;5.35;;;;;;;;;;10370273;28;20057;-47
2022/01/12 10:25:17;;;;;;;9.20;5.90;;;;;;;;;;10369428;28;20121;-46
2022/01/12 10:30:28;;;;;;;8.38;5.93;;;;;;;;;;10367403;28;20041;-63
2022/01/12 10:35:30;;;;;;;9.13;5.45;;;;;;;;;;10367124;28;20041;-45
2022/01/12 10:41:02;;;;;;;7.88;5.65;;;;;;;;;;10367040;28;20030;-63
2022/01/12 10:46:06;;;;;;;10.93;5.78;;;;;;;;;;10368646;28;20030;-62
2022/01/12 10:51:07;;;;;;;11.80;6.13;;;;;;;;;;10368545;28;20029;-60
2022/01/12 10:56:13;;;;;;;8.90;5.55;;;;;;;;;;10369723;28;20026;-60
2022/01/12 11:01:17;;;;;;;9.60;5.50;;;;;;;;;;10368174;28;20124;-46
2022/01/12 11:06:18;;;;;;;9.02;5.68;;;;;;;;;;10368094;28;20559;-47
2022/01/12 11:11:20;;;;;;;8.10;5.93;;;;;;;;;;10366494;28;20026;-58
2022/01/12 11:16:25;;;;;;;8.10;5.45;;;;;;;;;;10366477;28;20544;-63
2022/01/12 11:21:52;;;;;;;7.18;5.35;;;;;;;;;;10369387;28;20044;-50
2022/01/12 11:26:52;;;;;;;6.82;5.40;;;;;;;;;;10368064;28;20405;-53
2022/01/12 11:32:04;;;;;;;10.05;5.82;;;;;;;;;;10369036;28;20033;-65
2022/01/12 11:37:16;;;;;;;7.15;5.68;;;;;;;;;;10370144;28;20034;-55
2022/01/12 11:42:18;;;;;;;6.15;5.18;;;;;;;;;;10369005;28;20272;-51
2022/01/12 11:47:21;;;;;;;6.43;5.47;;;;;;;;;;10368125;28;20030;-52
2022/01/12 11:52:27;;;;;;;7.88;5.82;;;;;;;;;;10367849;28;20032;-62
2022/01/12 11:57:36;;;;;;;7.20;5.18;;;;;;;;;;10366745;28;20042;-62
2022/01/12 12:02:38;;;;;;;7.70;5.22;;;;;;;;;;10368247;28;20110;-57
2022/01/12 12:07:53;;;;;;;7.53;5.38;;;;;;;;;;10368039;28;20022;-62
2022/01/12 12:12:55;;;;;;;7.63;5.05;;;;;;;;;;10368262;28;20113;-57
2022/01/12 12:17:58;;;;;;;7.18;5.35;;;;;;;;;;10372200;28;20428;-58
2022/01/12 12:22:58;;;;;;;7.13;5.38;;;;;;;;;;10372509;28;20092;-62
2022/01/12 12:28:02;;;;;;;9.75;5.32;;;;;;;;;;10375268;28;20076;-52
2022/01/12 12:33:08;;;;;;;12.13;5.75;;;;;;;;;;10374374;28;20033;-50
2022/01/12 12:38:10;;;;;;;12.90;5.47;;;;;;;;;;10374226;28;20029;-64
2022/01/12 12:43:21;;;;;;;13.00;5.80;;;;;;;;;;10374233;28;20030;-53
2022/01/12 12:48:23;;;;;;;11.90;5.78;;;;;;;;;;10375212;28;20057;-61
2022/01/12 12:53:35;;;;;;;10.73;5.60;;;;;;;;;;10374396;28;20466;-60
2022/01/12 12:58:36;;;;;;;10.15;5.50;;;;;;;;;;10373167;28;20112;-47
2022/01/12 13:03:39;;;;;;;10.80;5.43;;;;;;;;;;10371443;28;20026;-47
2022/01/12 13:08:51;;;;;;;13.38;5.95;;;;;;;;;;10372482;28;20359;-54
2022/01/12 13:13:56;;;;;;;11.10;5.57;;;;;;;;;;10371286;28;20426;-58
2022/01/12 13:19:08;;;;;;;10.80;5.63;;;;;;;;;;10371586;28;20208;-65
2022/01/12 13:24:08;;;;;;;13.10;6.03;;;;;;;;;;10367184;28;20022;-59
2022/01/12 13:29:13;;;;;;;10.30;5.90;;;;;;;;;;10366478;28;20069;-45
2022/01/12 13:34:14;;;;;;;13.63;5.70;;;;;;;;;;10371194;28;20219;-49
2022/01/12 13:39:16;;;;;;;15.25;5.07;;;;;;;;;;10365827;28;20095;-55
2022/01/12 13:44:18;;;;;;;12.90;5.05;;;;;;;;;;10337019;28;20026;-44
2022/01/12 13:54:19;;;;;;;11.70;5.00;;;;;;;;;;10336007;28;20545;-56
2022/01/12 13:59:21;;;;;;;12.98;4.95;;;;;;;;;;10335265;28;20649;-56
2022/01/12 14:04:37;;;;;;;10.65;4.85;;;;;;;;;;10333915;28;20512;-48
2022/01/12 14:09:43;;;;;;;23.48;4.97;;;;;;;;;;10332549;28;20489;-47
2022/01/12 14:14:51;;;;;;;9.68;4.97;;;;;;;;;;10333232;28;20070;-53
2022/01/12 14:19:53;;;;;;;10.25;4.88;;;;;;;;;;10334316;28;20030;-46
2022/01/12 14:25:03;;;;;;;9.63;4.95;;;;;;;;;;10331181;28;20607;-44
2022/01/12 14:30:09;;;;;;;9.57;4.50;;;;;;;;;;10333832;28;20098;-45
2022/01/12 14:35:12;;;;;;;11.80;4.78;;;;;;;;;;10329808;28;20053;-60
2022/01/12 14:40:13;;;;;;;8.80;4.47;;;;;;;;;;10329571;28;20032;-55
2022/01/12 14:45:18;;;;;;;10.57;4.43;;;;;;;;;;10333026;28;20507;-56
2022/01/12 14:50:20;;;;;;;7.88;4.18;;;;;;;;;;10335472;28;20386;-54
2022/01/12 14:55:21;;;;;;;7.03;4.53;;;;;;;;;;10334141;28;20696;-50
2022/01/12 15:00:25;;;;;;;10.15;4.43;;;;;;;;;;10332596;28;20076;-51
2022/01/12 15:05:30;;;;;;;6.80;3.70;;;;;;;;;;10332858;28;20037;-59
2022/01/12 15:10:31;;;;;;;12.95;4.40;;;;;;;;;;10332954;28;20057;-55
2022/01/12 15:15:32;;;;;;;13.40;4.53;;;;;;;;;;10332060;28;20061;-56
2022/01/12 15:20:33;;;;;;;9.65;3.95;;;;;;;;;;10332098;28;20033;-55
2022/01/12 15:25:33;;;;;;;13.50;3.85;;;;;;;;;;10328850;28;20057;-60
2022/01/12 15:30:35;;;;;;;5.95;3.97;;;;;;;;;;10334099;28;20033;-59
2022/01/12 15:35:36;;;;;;;11.23;4.10;;;;;;;;;;10360015;28;20147;-52
2022/01/12 15:40:39;;;;;;;12.68;4.38;;;;;;;;;;10363480;28;20195;-59
2022/01/12 15:45:39;;;;;;;6.80;4.07;;;;;;;;;;10368335;28;20025;-59
2022/01/12 15:50:40;;;;;;;6.43;4.00;;;;;;;;;;10376686;28;20389;-57
2022/01/12 15:55:40;;;;;;;7.82;4.00;;;;;;;;;;10381389;28;20552;-55
2022/01/12 16:00:41;;;;;;;8.80;4.03;;;;;;;;;;10378631;28;20029;-57
2022/01/12 16:05:42;;;;;;;6.10;3.72;;;;;;;;;;10367504;28;20052;-54
2022/01/12 16:10:43;;;;;;;8.20;3.88;;;;;;;;;;10343558;28;20359;-52
2022/01/12 16:15:44;;;;;;;9.88;3.40;;;;;;;;;;10343150;28;20489;-53
2022/01/12 16:20:44;;;;;;;14.50;3.97;;;;;;;;;;10344471;28;20030;-52
2022/01/12 16:25:45;;;;;;;6.72;3.85;;;;;;;;;;10344569;28;20419;-53
2022/01/12 16:30:51;;;;;;;5.43;3.80;;;;;;;;;;10343900;28;20104;-56
2022/01/12 16:35:51;;;;;;;10.05;3.78;;;;;;;;;;10345560;28;20091;-57
2022/01/12 16:40:54;;;;;;;6.68;4.05;;;;;;;;;;10340615;28;20025;-53
2022/01/12 16:45:54;;;;;;;6.95;3.85;;;;;;;;;;10344033;28;20026;-53
2022/01/12 16:50:54;;;;;;;5.93;3.43;;;;;;;;;;10368117;28;20026;-61
2022/01/12 16:55:55;;;;;;;5.60;2.83;;;;;;;;;;10363712;28;20057;-52
2022/01/12 17:00:56;;;;;;;6.50;3.50;;;;;;;;;;10336724;28;20122;-52
2022/01/12 17:05:56;;;;;;;10.18;3.85;;;;;;;;;;10335775;28;20038;-54
2022/01/12 17:10:57;;;;;;;8.97;4.00;;;;;;;;;;10335620;28;20030;-56
2022/01/12 17:16:01;;;;;;;10.60;3.85;;;;;;;;;;10333801;28;20533;-56
2022/01/12 17:21:02;;;;;;;6.28;3.97;;;;;;;;;;10334053;28;20037;-56
2022/01/12 17:26:02;;;;;;;7.13;4.45;;;;;;;;;;10334893;28;20030;-53
2022/01/12 17:31:03;;;;;;;7.83;3.90;;;;;;;;;;10350749;28;20028;-63
2022/01/12 17:36:42;;;;;;;29.43;5.80;;;;;;;;;;10366892;28;20075;-58
2022/01/12 17:42:07;;;;;;;18.52;4.78;;;;;;;;;;10367794;28;20030;-57
2022/01/12 17:47:10;;;;;;;11.88;4.55;;;;;;;;;;10367609;28;20040;-60
2022/01/12 17:52:10;;;;;;;9.00;4.13;;;;;;;;;;10367777;28;20018;-55
2022/01/12 17:57:12;;;;;;;8.27;4.03;;;;;;;;;;10370699;28;20025;-61
2022/01/12 18:02:12;;;;;;;10.95;3.95;;;;;;;;;;10363696;28;20060;-52
2022/01/12 18:07:12;;;;;;;6.73;3.80;;;;;;;;;;10337189;28;20079;-51
2022/01/12 18:12:14;;;;;;;9.00;3.90;;;;;;;;;;10336885;28;20672;-53
2022/01/12 18:17:15;;;;;;;9.70;4.40;;;;;;;;;;10334817;28;20434;-49
2022/01/12 18:22:17;;;;;;;18.05;4.75;;;;;;;;;;10331387;28;20144;-59
2022/01/12 18:27:19;;;;;;;16.00;4.45;;;;;;;;;;10332261;28;20034;-60
2022/01/12 18:32:19;;;;;;;14.48;4.78;;;;;;;;;;10356699;28;20523;-62
2022/01/12 18:37:20;;;;;;;12.57;4.88;;;;;;;;;;10367947;28;20076;-56
2022/01/12 18:42:23;;;;;;;12.30;5.28;;;;;;;;;;10368379;28;20033;-61
2022/01/12 18:47:24;;;;;;;11.70;5.28;;;;;;;;;;10367211;28;20033;-53
2022/01/12 18:52:25;;;;;;;11.70;5.80;;;;;;;;;;10360828;28;20062;-54
2022/01/12 18:57:25;;;;;;;13.77;6.10;;;;;;;;;;10366784;28;20045;-48
2022/01/12 19:02:25;;;;;;;21.77;7.03;;;;;;;;;;10368170;28;20053;-55
2022/01/12 19:07:26;;;;;;;27.93;7.97;;;;;;;;;;10367539;28;20636;-52
2022/01/12 19:12:27;;;;;;;25.10;8.30;;;;;;;;;;10368391;28;20443;-52
2022/01/12 19:17:27;;;;;;;24.77;8.23;;;;;;;;;;10367591;28;20050;-52
2022/01/12 19:22:28;;;;;;;23.83;8.48;;;;;;;;;;10367432;28;20514;-57
2022/01/12 19:27:29;;;;;;;21.83;8.48;;;;;;;;;;10367633;28;20034;-60
2022/01/12 19:32:29;;;;;;;17.55;7.53;;;;;;;;;;10366949;28;20048;-62
2022/01/12 19:37:30;;;;;;;12.98;6.22;;;;;;;;;;10367037;28;20030;-61
2022/01/12 19:42:31;;;;;;;15.60;6.40;;;;;;;;;;10367189;28;20030;-60
2022/01/12 19:47:32;;;;;;;11.20;6.55;;;;;;;;;;10368375;28;20463;-59
2022/01/12 19:52:59;;;;;;;15.60;6.90;;;;;;;;;;10363629;28;20025;-56
2022/01/12 19:58:04;;;;;;;15.13;7.50;;;;;;;;;;10351114;28;20501;-62
2022/01/12 20:03:19;;;;;;;18.65;7.50;;;;;;;;;;10363968;28;20053;-59
2022/01/12 20:08:39;;;;;;;13.30;7.50;;;;;;;;;;10367365;28;20061;-57
2022/01/12 20:13:40;;;;;;;18.88;8.00;;;;;;;;;;10366266;28;20409;-46
2022/01/12 20:24:23;;;;;;;15.40;8.32;;;;;;;;;;10367002;28;20113;-48
2022/01/12 20:29:23;;;;;;;15.25;8.75;;;;;;;;;;10367083;28;20030;-47
2022/01/12 20:34:25;;;;;;;15.32;9.02;;;;;;;;;;10367049;28;20030;-60
2022/01/12 20:39:25;;;;;;;15.48;8.23;;;;;;;;;;10373240;28;20038;-52
2022/01/12 20:44:26;;;;;;;15.50;8.48;;;;;;;;;;10373998;28;20026;-59
2022/01/12 20:49:27;;;;;;;12.88;7.80;;;;;;;;;;10373703;28;20117;-49
2022/01/12 20:54:28;;;;;;;19.38;8.70;;;;;;;;;;10374086;28;20034;-53
2022/01/12 20:59:32;;;;;;;15.07;8.38;;;;;;;;;;10371379;28;20029;-57
2022/01/12 21:04:36;;;;;;;15.40;8.65;;;;;;;;;;10370310;28;20026;-54
2022/01/12 21:09:37;;;;;;;15.02;9.27;;;;;;;;;;10373385;28;20436;-53
2022/01/12 21:14:37;;;;;;;15.60;8.70;;;;;;;;;;10373336;28;20045;-48
2022/01/12 21:19:38;;;;;;;16.77;8.57;;;;;;;;;;10373673;28;20034;-57
2022/01/12 21:24:38;;;;;;;13.23;8.80;;;;;;;;;;10373608;28;20093;-57
2022/01/12 21:29:39;;;;;;;12.27;8.80;;;;;;;;;;10367146;28;20092;-53
2022/01/12 21:34:46;;;;;;;14.88;8.70;;;;;;;;;;10362030;28;20036;-48
2022/01/12 21:39:54;;;;;;;19.17;9.65;;;;;;;;;;10370532;28;20033;-56
2022/01/12 21:44:54;;;;;;;15.20;9.13;;;;;;;;;;10371907;28;20025;-60
2022/01/12 21:49:55;;;;;;;16.17;9.32;;;;;;;;;;10371454;28;20112;-46
2022/01/12 21:54:55;;;;;;;14.20;8.95;;;;;;;;;;10372071;28;20061;-45
2022/01/12 21:59:56;;;;;;;13.40;9.27;;;;;;;;;;10371404;28;20030;-60
2022/01/12 22:04:58;;;;;;;16.35;9.73;;;;;;;;;;10367762;28;20446;-52
2022/01/12 22:09:59;;;;;;;18.70;10.23;;;;;;;;;;10367206;28;20036;-60
2022/01/12 22:14:59;;;;;;;15.98;10.10;;;;;;;;;;10370341;28;20367;-57
2022/01/12 22:20:00;;;;;;;18.97;10.63;;;;;;;;;;10369442;28;20104;-61
2022/01/12 22:25:00;;;;;;;26.42;10.25;;;;;;;;;;10369485;28;20499;-66
2022/01/12 22:30:01;;;;;;;16.77;10.30;;;;;;;;;;10367469;28;20029;-63
2022/01/12 22:35:06;;;;;;;27.67;9.95;;;;;;;;;;10370135;28;20029;-61
2022/01/12 22:40:07;;;;;;;20.60;10.30;;;;;;;;;;10369439;28;20030;-61
2022/01/12 22:45:09;;;;;;;22.55;9.52;;;;;;;;;;10367961;28;20057;-63
2022/01/12 22:50:09;;;;;;;20.13;8.80;;;;;;;;;;10367663;28;20401;-62
2022/01/12 22:55:10;;;;;;;21.15;10.00;;;;;;;;;;10368972;28;20036;-63
2022/01/12 23:00:14;;;;;;;19.50;10.00;;;;;;;;;;10368264;28;20153;-62
2022/01/12 23:05:15;;;;;;;15.93;9.38;;;;;;;;;;10368294;28;20030;-65
2022/01/12 23:10:15;;;;;;;32.17;9.75;;;;;;;;;;10365046;28;20418;-66
2022/01/12 23:15:16;;;;;;;31.80;8.30;;;;;;;;;;10365038;28;20050;-64
2022/01/12 23:20:16;;;;;;;22.55;8.60;;;;;;;;;;10367490;28;20359;-65
2022/01/12 23:25:17;;;;;;;21.08;8.45;;;;;;;;;;10367004;28;20034;-65
2022/01/12 23:30:19;;;;;;;14.00;8.07;;;;;;;;;;10366598;28;20607;-64
